Terminal Aerodrome Forecast
Issued by NWS

Current Version | Previous Version | Text Only | Print | Product List | Glossary On
Versions: 1 2 3 4 5 6 7 8 9 10 11 12 13 14 15 16 17 18 19 20 21 22 23 24 25 26 27 28
000
FTUS44 KMOB 051457 AAA
TAFBFM
TAF AMD
KBFM 051457Z 0515/0612 14005KT P6SM BKN018 OVC030
     FM051700 23008KT P6SM VCTS SCT040CB BKN100
     FM052100 20004KT P6SM VCTS SCT050CB BKN200
      TEMPO 0522/0602 VRB15G25KT 4SM TSRA BKN040CB=

USA.gov is the U.S. government's official web portal to all federal, state and local government web resources and services.